Burke, VT

11:14 PM EDT on September 20, 2014 (GMT -0400)
East Burke | Change Station
CLOSE
Current Station
Personal Weather Station
Location: East BUrke, VT
Elevation: 1332 ft
Nearby Weather Stations

Elev 1332 ft 44.57 °N, 71.93 °W | Updated 6 seconds ago

Partly Cloudy
Partly Cloudy
61.3 °F
Feels Like 61.3 °F
N
8.3
Wind Variable Wind from NE
Gusts 23.5 mph

Today
High -- | Low -- °F
--% Chance of Precip.
Yesterday
High -- | Low -- °F
Precip. -- in
6:32 AM 6:48 PM
Waning Crescent, 9% visible
Pressure 30.02 in
Visibility 10.0 miles
Clouds Overcast 5000 ft
Dew Point 57 °F
Humidity 86%
Rainfall 0.04 in
Snow Depth Not available.
UV 0 out of 12
Pollen 2.90 out of 12
Ozone Good
PM2.5 Good
Flu Activity Not available.
METAR KHIE 210252Z AUTO 23005KT 10SM OVC050 17/12 A3001 RMK AO2 SLP166 T01720122 56012

More Conditions Fewer Conditions

Pressure 30.02 in
Visibility 10.0 miles
Clouds Overcast 5000 ft
Dew Point 57 °F
Humidity 86%
Rainfall 0.04 in
Snow Depth Not available.
UV 0 out of 12
Pollen 2.90 out of 12
Ozone Good
PM2.5 Good
Flu Activity Not available.
METAR KHIE 210252Z AUTO 23005KT 10SM OVC050 17/12 A3001 RMK AO2 SLP166 T01720122 56012

More Conditions Fewer Conditions

10-Day Weather Forecast

Almanac

Astronomy

Sep. 20, 2014 Rise Set
Actual Time 6:32 AM EDT 6:48 PM EDT
Civil Twilight 6:03 AM EDT 7:17 PM EDT
Nautical Twilight 5:28 AM EDT 7:52 PM EDT
Astronomical Twilight 4:53 AM EDT 8:27 PM EDT
Moon 3:02 AM EDT (9/20) 4:56 PM EDT (9/20)
Length of Visible Light 13h 14m
Length of Day
12h 16m
Tomorrow will be 3m 4s shorter.
Waning Crescent, 9% of the Moon is Illuminated
Today
Waning Crescent
Sep 24
New
Oct 1
First Quarter
Oct 8
Full
Oct 15
Last Quarter

Today's Extremes

State Highs State Lows

Community

WunderPhotos

Upload Photos

1,755,068 photos uploaded!

WunderBlogs® & News

Nearby

Air Quality

  Air Quality AQ Index Pollutant
Yesterday Good
OZONE
Yesterday Good
PM2.5
Current Good
PM2.5
Current Good
OZONE
Saturday Good
PM2.5
Saturday Good
OZONE
Sunday Good
PM2.5
Monday Good
PM2.5

Snow Depth

Station Depth Elevation
No new snow has been reported.

Earthquake Activity

City Distance Mag. Time & Date
No recent earthquake activity has been reported nearby.
Minimum magnitude displayed is 2.5.

Coastal Water Temperatures

Place Temperature
No Stations Reporting

Nearby Weather Stations